sensor_id;sensor_type;location;lat;lon;timestamp;pressure;altitude;pressure_sealevel;temperature
10058;BMP180;5068;51.286;7.518;2023-02-28T00:00:11;100637.00;;;2.10
10058;BMP180;5068;51.286;7.518;2023-02-28T00:01:44;100652.00;;;2.10
10058;BMP180;5068;51.286;7.518;2023-02-28T00:03:18;100648.00;;;2.10
10058;BMP180;5068;51.286;7.518;2023-02-28T00:04:50;100644.00;;;2.10
10058;BMP180;5068;51.286;7.518;2023-02-28T00:06:24;100643.00;;;2.10
10058;BMP180;5068;51.286;7.518;2023-02-28T00:07:58;100647.00;;;2.10
10058;BMP180;5068;51.286;7.518;2023-02-28T00:09:31;100652.00;;;2.10
10058;BMP180;5068;51.286;7.518;2023-02-28T00:11:07;100645.00;;;2.10
10058;BMP180;5068;51.286;7.518;2023-02-28T00:12:41;100644.00;;;2.00
10058;BMP180;5068;51.286;7.518;2023-02-28T00:14:14;100651.00;;;2.00
10058;BMP180;5068;51.286;7.518;2023-02-28T00:15:47;100645.00;;;2.00
10058;BMP180;5068;51.286;7.518;2023-02-28T00:17:20;100645.00;;;2.00
10058;BMP180;5068;51.286;7.518;2023-02-28T00:18:53;100643.00;;;2.00
10058;BMP180;5068;51.286;7.518;2023-02-28T00:20:26;100643.00;;;2.00
10058;BMP180;5068;51.286;7.518;2023-02-28T00:21:59;100642.00;;;2.00
10058;BMP180;5068;51.286;7.518;2023-02-28T00:23:32;100648.00;;;2.00
10058;BMP180;5068;51.286;7.518;2023-02-28T00:25:09;100643.00;;;2.00
10058;BMP180;5068;51.286;7.518;2023-02-28T00:26:43;100646.00;;;2.10
10058;BMP180;5068;51.286;7.518;2023-02-28T00:28:16;100650.00;;;2.00
10058;BMP180;5068;51.286;7.518;2023-02-28T00:29:48;100644.00;;;2.00
10058;BMP180;5068;51.286;7.518;2023-02-28T00:31:21;100643.00;;;2.10
10058;BMP180;5068;51.286;7.518;2023-02-28T00:32:55;100638.00;;;2.10
10058;BMP180;5068;51.286;7.518;2023-02-28T00:34:28;100648.00;;;2.10
10058;BMP180;5068;51.286;7.518;2023-02-28T00:36:05;100639.00;;;2.10
10058;BMP180;5068;51.286;7.518;2023-02-28T00:37:40;100634.00;;;2.10
10058;BMP180;5068;51.286;7.518;2023-02-28T00:39:14;100640.00;;;2.10
10058;BMP180;5068;51.286;7.518;2023-02-28T00:40:49;100638.00;;;2.10
10058;BMP180;5068;51.286;7.518;2023-02-28T00:42:22;100636.00;;;2.10
10058;BMP180;5068;51.286;7.518;2023-02-28T00:43:55;100635.00;;;2.10
10058;BMP180;5068;51.286;7.518;2023-02-28T00:45:29;100640.00;;;2.10
10058;BMP180;5068;51.286;7.518;2023-02-28T00:47:02;100637.00;;;2.00
10058;BMP180;5068;51.286;7.518;2023-02-28T00:48:35;100644.00;;;2.00
10058;BMP180;5068;51.286;7.518;2023-02-28T00:50:10;100636.00;;;2.00
10058;BMP180;5068;51.286;7.518;2023-02-28T00:51:43;100626.00;;;2.00
10058;BMP180;5068;51.286;7.518;2023-02-28T00:53:16;100640.00;;;2.00
10058;BMP180;5068;51.286;7.518;2023-02-28T00:54:50;100637.00;;;2.00
10058;BMP180;5068;51.286;7.518;2023-02-28T00:56:25;100632.00;;;2.00
10058;BMP180;5068;51.286;7.518;2023-02-28T00:57:58;100631.00;;;2.00
10058;BMP180;5068;51.286;7.518;2023-02-28T00:59:31;100637.00;;;2.00
10058;BMP180;5068;51.286;7.518;2023-02-28T01:01:05;100645.00;;;2.00
10058;BMP180;5068;51.286;7.518;2023-02-28T01:02:37;100648.00;;;1.90
10058;BMP180;5068;51.286;7.518;2023-02-28T01:04:13;100626.00;;;1.90
10058;BMP180;5068;51.286;7.518;2023-02-28T01:05:47;100646.00;;;1.90
10058;BMP180;5068;51.286;7.518;2023-02-28T01:07:21;100639.00;;;1.90
10058;BMP180;5068;51.286;7.518;2023-02-28T01:08:54;100633.00;;;1.90
10058;BMP180;5068;51.286;7.518;2023-02-28T01:10:28;100639.00;;;1.90
10058;BMP180;5068;51.286;7.518;2023-02-28T01:12:05;100640.00;;;1.90
10058;BMP180;5068;51.286;7.518;2023-02-28T01:13:40;100624.00;;;1.80
10058;BMP180;5068;51.286;7.518;2023-02-28T01:15:13;100622.00;;;1.80
10058;BMP180;5068;51.286;7.518;2023-02-28T01:16:46;100629.00;;;1.80
10058;BMP180;5068;51.286;7.518;2023-02-28T01:18:20;100626.00;;;1.80
10058;BMP180;5068;51.286;7.518;2023-02-28T01:19:54;100626.00;;;1.70
10058;BMP180;5068;51.286;7.518;2023-02-28T01:21:29;100628.00;;;1.70
10058;BMP180;5068;51.286;7.518;2023-02-28T01:23:02;100627.00;;;1.60
10058;BMP180;5068;51.286;7.518;2023-02-28T01:24:37;100622.00;;;1.60
10058;BMP180;5068;51.286;7.518;2023-02-28T01:26:13;100620.00;;;1.60
10058;BMP180;5068;51.286;7.518;2023-02-28T01:27:47;100620.00;;;1.50
10058;BMP180;5068;51.286;7.518;2023-02-28T01:29:21;100616.00;;;1.50
10058;BMP180;5068;51.286;7.518;2023-02-28T01:30:54;100618.00;;;1.50
10058;BMP180;5068;51.286;7.518;2023-02-28T01:32:27;100618.00;;;1.50
10058;BMP180;5068;51.286;7.518;2023-02-28T01:34:00;100621.00;;;1.50
10058;BMP180;5068;51.286;7.518;2023-02-28T01:35:34;100628.00;;;1.50
10058;BMP180;5068;51.286;7.518;2023-02-28T01:37:07;100621.00;;;1.50
10058;BMP180;5068;51.286;7.518;2023-02-28T01:38:41;100633.00;;;1.50
10058;BMP180;5068;51.286;7.518;2023-02-28T01:40:14;100629.00;;;1.50
10058;BMP180;5068;51.286;7.518;2023-02-28T01:41:47;100623.00;;;1.50
10058;BMP180;5068;51.286;7.518;2023-02-28T01:43:25;100616.00;;;1.50
10058;BMP180;5068;51.286;7.518;2023-02-28T01:45:17;100612.00;;;1.50
10058;BMP180;5068;51.286;7.518;2023-02-28T01:46:51;100622.00;;;1.50
10058;BMP180;5068;51.286;7.518;2023-02-28T01:48:29;100618.00;;;1.40
10058;BMP180;5068;51.286;7.518;2023-02-28T01:50:10;100619.00;;;1.40
10058;BMP180;5068;51.286;7.518;2023-02-28T01:51:48;100619.00;;;1.40
10058;BMP180;5068;51.286;7.518;2023-02-28T01:53:30;100611.00;;;1.40
10058;BMP180;5068;51.286;7.518;2023-02-28T01:55:07;100610.00;;;1.40
10058;BMP180;5068;51.286;7.518;2023-02-28T01:56:47;100614.00;;;1.40
10058;BMP180;5068;51.286;7.518;2023-02-28T01:58:21;100612.00;;;1.40
10058;BMP180;5068;51.286;7.518;2023-02-28T01:59:58;100622.00;;;1.30
10058;BMP180;5068;51.286;7.518;2023-02-28T02:01:33;100617.00;;;1.30
10058;BMP180;5068;51.286;7.518;2023-02-28T02:03:09;100616.00;;;1.30
10058;BMP180;5068;51.286;7.518;2023-02-28T02:04:50;100611.00;;;1.30
10058;BMP180;5068;51.286;7.518;2023-02-28T02:06:29;100612.00;;;1.30
10058;BMP180;5068;51.286;7.518;2023-02-28T02:08:06;100613.00;;;1.30
10058;BMP180;5068;51.286;7.518;2023-02-28T02:09:41;100608.00;;;1.30
10058;BMP180;5068;51.286;7.518;2023-02-28T02:11:19;100613.00;;;1.40
10058;BMP180;5068;51.286;7.518;2023-02-28T02:13:28;100611.00;;;1.30
10058;BMP180;5068;51.286;7.518;2023-02-28T02:15:12;100602.00;;;1.30
10058;BMP180;5068;51.286;7.518;2023-02-28T02:17:02;100601.00;;;1.30
10058;BMP180;5068;51.286;7.518;2023-02-28T02:18:44;100612.00;;;1.20
10058;BMP180;5068;51.286;7.518;2023-02-28T02:20:57;100617.00;;;1.20
10058;BMP180;5068;51.286;7.518;2023-02-28T02:23:21;100604.00;;;1.10
10058;BMP180;5068;51.286;7.518;2023-02-28T02:25:19;100592.00;;;1.00
10058;BMP180;5068;51.286;7.518;2023-02-28T02:27:08;100603.00;;;1.00
10058;BMP180;5068;51.286;7.518;2023-02-28T02:29:32;100604.00;;;0.90
10058;BMP180;5068;51.286;7.518;2023-02-28T02:31:51;100597.00;;;0.90
10058;BMP180;5068;51.286;7.518;2023-02-28T02:34:08;100591.00;;;0.80
10058;BMP180;5068;51.286;7.518;2023-02-28T02:35:52;100613.00;;;0.80
10058;BMP180;5068;51.286;7.518;2023-02-28T02:37:35;100605.00;;;0.80
10058;BMP180;5068;51.286;7.518;2023-02-28T02:39:17;100599.00;;;0.70
10058;BMP180;5068;51.286;7.518;2023-02-28T02:41:04;100602.00;;;0.70
10058;BMP180;5068;51.286;7.518;2023-02-28T02:42:42;100606.00;;;0.70
10058;BMP180;5068;51.286;7.518;2023-02-28T02:44:23;100608.00;;;0.60
10058;BMP180;5068;51.286;7.518;2023-02-28T02:46:03;100599.00;;;0.60
10058;BMP180;5068;51.286;7.518;2023-02-28T02:47:39;100592.00;;;0.50
10058;BMP180;5068;51.286;7.518;2023-02-28T02:49:19;100603.00;;;0.50
10058;BMP180;5068;51.286;7.518;2023-02-28T02:50:57;100591.00;;;0.50
10058;BMP180;5068;51.286;7.518;2023-02-28T02:52:40;100603.00;;;0.50
10058;BMP180;5068;51.286;7.518;2023-02-28T02:54:20;100598.00;;;0.50
10058;BMP180;5068;51.286;7.518;2023-02-28T02:55:55;100611.00;;;0.50
10058;BMP180;5068;51.286;7.518;2023-02-28T02:57:38;100601.00;;;0.50
10058;BMP180;5068;51.286;7.518;2023-02-28T02:59:14;100602.00;;;0.50
10058;BMP180;5068;51.286;7.518;2023-02-28T03:00:57;100602.00;;;0.40
10058;BMP180;5068;51.286;7.518;2023-02-28T03:02:32;100600.00;;;0.50
10058;BMP180;5068;51.286;7.518;2023-02-28T03:04:10;100601.00;;;0.40
10058;BMP180;5068;51.286;7.518;2023-02-28T03:05:50;100607.00;;;0.40
10058;BMP180;5068;51.286;7.518;2023-02-28T03:07:26;100612.00;;;0.50
10058;BMP180;5068;51.286;7.518;2023-02-28T03:09:00;100616.00;;;0.40
10058;BMP180;5068;51.286;7.518;2023-02-28T03:10:38;100616.00;;;0.40
10058;BMP180;5068;51.286;7.518;2023-02-28T03:12:13;100622.00;;;0.40
10058;BMP180;5068;51.286;7.518;2023-02-28T03:14:21;100616.00;;;0.40
10058;BMP180;5068;51.286;7.518;2023-02-28T03:16:29;100618.00;;;0.40
10058;BMP180;5068;51.286;7.518;2023-02-28T03:18:10;100619.00;;;0.40
10058;BMP180;5068;51.286;7.518;2023-02-28T03:20:01;100610.00;;;0.40
10058;BMP180;5068;51.286;7.518;2023-02-28T03:21:50;100611.00;;;0.40
10058;BMP180;5068;51.286;7.518;2023-02-28T03:23:36;100599.00;;;0.40
10058;BMP180;5068;51.286;7.518;2023-02-28T03:25:21;100611.00;;;0.40
10058;BMP180;5068;51.286;7.518;2023-02-28T03:27:01;100601.00;;;0.30
10058;BMP180;5068;51.286;7.518;2023-02-28T03:28:45;100604.00;;;0.30
10058;BMP180;5068;51.286;7.518;2023-02-28T03:30:29;100588.00;;;0.30
10058;BMP180;5068;51.286;7.518;2023-02-28T03:32:13;100597.00;;;0.20
10058;BMP180;5068;51.286;7.518;2023-02-28T03:33:59;100602.00;;;0.20
10058;BMP180;5068;51.286;7.518;2023-02-28T03:35:36;100599.00;;;0.20
10058;BMP180;5068;51.286;7.518;2023-02-28T03:37:17;100607.00;;;0.20
10058;BMP180;5068;51.286;7.518;2023-02-28T03:38:57;100601.00;;;0.20
10058;BMP180;5068;51.286;7.518;2023-02-28T03:40:37;100598.00;;;0.10
10058;BMP180;5068;51.286;7.518;2023-02-28T03:42:14;100607.00;;;0.10
10058;BMP180;5068;51.286;7.518;2023-02-28T03:43:54;100603.00;;;0.00
10058;BMP180;5068;51.286;7.518;2023-02-28T03:45:32;100613.00;;;0.00
10058;BMP180;5068;51.286;7.518;2023-02-28T03:47:11;100606.00;;;0.00
10058;BMP180;5068;51.286;7.518;2023-02-28T03:48:51;100606.00;;;0.00
10058;BMP180;5068;51.286;7.518;2023-02-28T03:50:35;100612.00;;;0.00
10058;BMP180;5068;51.286;7.518;2023-02-28T03:52:09;100604.00;;;0.00
10058;BMP180;5068;51.286;7.518;2023-02-28T03:53:47;100600.00;;;0.00
10058;BMP180;5068;51.286;7.518;2023-02-28T03:55:23;100591.00;;;-0.10
10058;BMP180;5068;51.286;7.518;2023-02-28T03:57:03;100604.00;;;0.00
10058;BMP180;5068;51.286;7.518;2023-02-28T03:58:42;100608.00;;;-0.10
10058;BMP180;5068;51.286;7.518;2023-02-28T04:00:21;100612.00;;;-0.10
10058;BMP180;5068;51.286;7.518;2023-02-28T04:01:59;100608.00;;;-0.10
10058;BMP180;5068;51.286;7.518;2023-02-28T04:03:33;100611.00;;;-0.10
10058;BMP180;5068;51.286;7.518;2023-02-28T04:05:08;100617.00;;;-0.10
10058;BMP180;5068;51.286;7.518;2023-02-28T04:06:43;100609.00;;;-0.10
10058;BMP180;5068;51.286;7.518;2023-02-28T04:08:16;100612.00;;;-0.20
10058;BMP180;5068;51.286;7.518;2023-02-28T04:09:51;100622.00;;;-0.20
10058;BMP180;5068;51.286;7.518;2023-02-28T04:11:32;100612.00;;;-0.20
10058;BMP180;5068;51.286;7.518;2023-02-28T04:13:06;100616.00;;;-0.20
10058;BMP180;5068;51.286;7.518;2023-02-28T04:14:39;100616.00;;;-0.30
10058;BMP180;5068;51.286;7.518;2023-02-28T04:16:13;100613.00;;;-0.30
10058;BMP180;5068;51.286;7.518;2023-02-28T04:18:05;100611.00;;;-0.30
10058;BMP180;5068;51.286;7.518;2023-02-28T04:19:38;100620.00;;;-0.30
10058;BMP180;5068;51.286;7.518;2023-02-28T04:21:12;100614.00;;;-0.30
10058;BMP180;5068;51.286;7.518;2023-02-28T04:22:45;100611.00;;;-0.30
10058;BMP180;5068;51.286;7.518;2023-02-28T04:24:21;100626.00;;;-0.30
10058;BMP180;5068;51.286;7.518;2023-02-28T04:25:56;100610.00;;;-0.30
10058;BMP180;5068;51.286;7.518;2023-02-28T04:27:28;100606.00;;;-0.30
10058;BMP180;5068;51.286;7.518;2023-02-28T04:29:05;100614.00;;;-0.40
10058;BMP180;5068;51.286;7.518;2023-02-28T04:30:39;100607.00;;;-0.40
10058;BMP180;5068;51.286;7.518;2023-02-28T04:32:12;100603.00;;;-0.40
10058;BMP180;5068;51.286;7.518;2023-02-28T04:33:47;100614.00;;;-0.40
10058;BMP180;5068;51.286;7.518;2023-02-28T04:35:19;100620.00;;;-0.50
10058;BMP180;5068;51.286;7.518;2023-02-28T04:36:54;100618.00;;;-0.50
10058;BMP180;5068;51.286;7.518;2023-02-28T04:38:44;100625.00;;;-0.50
10058;BMP180;5068;51.286;7.518;2023-02-28T04:40:18;100621.00;;;-0.60
10058;BMP180;5068;51.286;7.518;2023-02-28T04:41:52;100611.00;;;-0.60
10058;BMP180;5068;51.286;7.518;2023-02-28T04:43:26;100622.00;;;-0.60
10058;BMP180;5068;51.286;7.518;2023-02-28T04:44:59;100619.00;;;-0.60
10058;BMP180;5068;51.286;7.518;2023-02-28T04:46:32;100620.00;;;-0.60
10058;BMP180;5068;51.286;7.518;2023-02-28T04:48:15;100620.00;;;-0.70
10058;BMP180;5068;51.286;7.518;2023-02-28T04:49:48;100624.00;;;-0.70
10058;BMP180;5068;51.286;7.518;2023-02-28T04:51:21;100620.00;;;-0.70
10058;BMP180;5068;51.286;7.518;2023-02-28T04:52:54;100624.00;;;-0.70
10058;BMP180;5068;51.286;7.518;2023-02-28T04:54:27;100627.00;;;-0.80
10058;BMP180;5068;51.286;7.518;2023-02-28T04:56:01;100628.00;;;-0.80
10058;BMP180;5068;51.286;7.518;2023-02-28T04:57:35;100620.00;;;-0.80
10058;BMP180;5068;51.286;7.518;2023-02-28T04:59:08;100623.00;;;-0.80
10058;BMP180;5068;51.286;7.518;2023-02-28T05:00:42;100627.00;;;-0.80
10058;BMP180;5068;51.286;7.518;2023-02-28T05:02:15;100629.00;;;-0.80
10058;BMP180;5068;51.286;7.518;2023-02-28T05:03:49;100627.00;;;-0.80
10058;BMP180;5068;51.286;7.518;2023-02-28T05:05:23;100623.00;;;-0.80
10058;BMP180;5068;51.286;7.518;2023-02-28T05:06:56;100624.00;;;-0.80
10058;BMP180;5068;51.286;7.518;2023-02-28T05:08:28;100620.00;;;-0.80
10058;BMP180;5068;51.286;7.518;2023-02-28T05:10:02;100629.00;;;-0.80
10058;BMP180;5068;51.286;7.518;2023-02-28T05:11:37;100629.00;;;-0.80
10058;BMP180;5068;51.286;7.518;2023-02-28T05:13:13;100632.00;;;-0.90
10058;BMP180;5068;51.286;7.518;2023-02-28T05:14:46;100636.00;;;-0.90
10058;BMP180;5068;51.286;7.518;2023-02-28T05:16:19;100639.00;;;-0.90
10058;BMP180;5068;51.286;7.518;2023-02-28T05:17:53;100641.00;;;-0.90
10058;BMP180;5068;51.286;7.518;2023-02-28T05:19:26;100639.00;;;-0.90
10058;BMP180;5068;51.286;7.518;2023-02-28T05:21:00;100637.00;;;-0.90
10058;BMP180;5068;51.286;7.518;2023-02-28T05:22:34;100642.00;;;-0.90
10058;BMP180;5068;51.286;7.518;2023-02-28T05:24:11;100634.00;;;-0.90
10058;BMP180;5068;51.286;7.518;2023-02-28T05:25:44;100643.00;;;-0.90
10058;BMP180;5068;51.286;7.518;2023-02-28T05:27:17;100627.00;;;-1.00
10058;BMP180;5068;51.286;7.518;2023-02-28T05:28:52;100646.00;;;-1.00
10058;BMP180;5068;51.286;7.518;2023-02-28T05:30:25;100640.00;;;-1.00
10058;BMP180;5068;51.286;7.518;2023-02-28T05:31:59;100642.00;;;-1.00
10058;BMP180;5068;51.286;7.518;2023-02-28T05:33:32;100635.00;;;-1.00
10058;BMP180;5068;51.286;7.518;2023-02-28T05:35:05;100636.00;;;-1.00
10058;BMP180;5068;51.286;7.518;2023-02-28T05:36:39;100645.00;;;-1.00
10058;BMP180;5068;51.286;7.518;2023-02-28T05:38:12;100641.00;;;-1.00
10058;BMP180;5068;51.286;7.518;2023-02-28T05:39:45;100647.00;;;-1.10
10058;BMP180;5068;51.286;7.518;2023-02-28T05:41:20;100641.00;;;-1.10
10058;BMP180;5068;51.286;7.518;2023-02-28T05:42:54;100647.00;;;-1.10
10058;BMP180;5068;51.286;7.518;2023-02-28T05:44:28;100635.00;;;-1.10
10058;BMP180;5068;51.286;7.518;2023-02-28T05:46:04;100640.00;;;-1.10
10058;BMP180;5068;51.286;7.518;2023-02-28T05:47:38;100647.00;;;-1.10
10058;BMP180;5068;51.286;7.518;2023-02-28T05:49:11;100636.00;;;-1.10
10058;BMP180;5068;51.286;7.518;2023-02-28T05:50:45;100631.00;;;-1.10
10058;BMP180;5068;51.286;7.518;2023-02-28T05:52:18;100640.00;;;-1.10
10058;BMP180;5068;51.286;7.518;2023-02-28T05:53:51;100637.00;;;-1.10
10058;BMP180;5068;51.286;7.518;2023-02-28T05:55:24;100644.00;;;-1.10
10058;BMP180;5068;51.286;7.518;2023-02-28T05:56:56;100638.00;;;-1.10
10058;BMP180;5068;51.286;7.518;2023-02-28T05:58:31;100641.00;;;-1.10
10058;BMP180;5068;51.286;7.518;2023-02-28T06:00:07;100643.00;;;-1.20
10058;BMP180;5068;51.286;7.518;2023-02-28T06:01:45;100633.00;;;-1.20
10058;BMP180;5068;51.286;7.518;2023-02-28T06:03:20;100648.00;;;-1.20
10058;BMP180;5068;51.286;7.518;2023-02-28T06:04:54;100645.00;;;-1.20
10058;BMP180;5068;51.286;7.518;2023-02-28T06:06:27;100655.00;;;-1.20
10058;BMP180;5068;51.286;7.518;2023-02-28T06:08:01;100652.00;;;-1.20
10058;BMP180;5068;51.286;7.518;2023-02-28T06:09:34;100647.00;;;-1.20
10058;BMP180;5068;51.286;7.518;2023-02-28T06:11:08;100655.00;;;-1.20
10058;BMP180;5068;51.286;7.518;2023-02-28T06:12:40;100655.00;;;-1.20
10058;BMP180;5068;51.286;7.518;2023-02-28T06:14:16;100658.00;;;-1.30
10058;BMP180;5068;51.286;7.518;2023-02-28T06:15:51;100653.00;;;-1.30
10058;BMP180;5068;51.286;7.518;2023-02-28T06:17:24;100651.00;;;-1.30
10058;BMP180;5068;51.286;7.518;2023-02-28T06:18:59;100663.00;;;-1.30
10058;BMP180;5068;51.286;7.518;2023-02-28T06:20:32;100654.00;;;-1.30
10058;BMP180;5068;51.286;7.518;2023-02-28T06:22:05;100663.00;;;-1.30
10058;BMP180;5068;51.286;7.518;2023-02-28T06:23:38;100667.00;;;-1.40
10058;BMP180;5068;51.286;7.518;2023-02-28T06:25:11;100670.00;;;-1.40
10058;BMP180;5068;51.286;7.518;2023-02-28T06:26:45;100663.00;;;-1.40
10058;BMP180;5068;51.286;7.518;2023-02-28T06:28:18;100665.00;;;-1.40
10058;BMP180;5068;51.286;7.518;2023-02-28T06:29:54;100678.00;;;-1.40
10058;BMP180;5068;51.286;7.518;2023-02-28T06:31:29;100663.00;;;-1.40
10058;BMP180;5068;51.286;7.518;2023-02-28T06:33:03;100679.00;;;-1.40
10058;BMP180;5068;51.286;7.518;2023-02-28T06:34:36;100679.00;;;-1.40
10058;BMP180;5068;51.286;7.518;2023-02-28T06:36:12;100682.00;;;-1.40
10058;BMP180;5068;51.286;7.518;2023-02-28T06:37:45;100674.00;;;-1.40
10058;BMP180;5068;51.286;7.518;2023-02-28T06:39:19;100678.00;;;-1.40
10058;BMP180;5068;51.286;7.518;2023-02-28T06:40:57;100678.00;;;-1.40
10058;BMP180;5068;51.286;7.518;2023-02-28T06:42:30;100685.00;;;-1.50
10058;BMP180;5068;51.286;7.518;2023-02-28T06:44:04;100687.00;;;-1.50
10058;BMP180;5068;51.286;7.518;2023-02-28T06:45:42;100682.00;;;-1.40
10058;BMP180;5068;51.286;7.518;2023-02-28T06:47:17;100689.00;;;-1.40
10058;BMP180;5068;51.286;7.518;2023-02-28T06:48:50;100677.00;;;-1.40
10058;BMP180;5068;51.286;7.518;2023-02-28T06:50:23;100688.00;;;-1.40
10058;BMP180;5068;51.286;7.518;2023-02-28T06:51:56;100689.00;;;-1.40
10058;BMP180;5068;51.286;7.518;2023-02-28T06:53:30;100687.00;;;-1.40
10058;BMP180;5068;51.286;7.518;2023-02-28T06:55:05;100692.00;;;-1.40
10058;BMP180;5068;51.286;7.518;2023-02-28T06:56:39;100684.00;;;-1.40
10058;BMP180;5068;51.286;7.518;2023-02-28T06:58:12;100695.00;;;-1.40
10058;BMP180;5068;51.286;7.518;2023-02-28T06:59:49;100701.00;;;-1.30
10058;BMP180;5068;51.286;7.518;2023-02-28T07:01:22;100700.00;;;-1.40
10058;BMP180;5068;51.286;7.518;2023-02-28T07:02:57;100698.00;;;-1.30
10058;BMP180;5068;51.286;7.518;2023-02-28T07:04:31;100698.00;;;-1.40
10058;BMP180;5068;51.286;7.518;2023-02-28T07:06:05;100695.00;;;-1.40
10058;BMP180;5068;51.286;7.518;2023-02-28T07:07:39;100695.00;;;-1.30
10058;BMP180;5068;51.286;7.518;2023-02-28T07:09:16;100693.00;;;-1.40
10058;BMP180;5068;51.286;7.518;2023-02-28T07:10:52;100686.00;;;-1.40
10058;BMP180;5068;51.286;7.518;2023-02-28T07:12:26;100692.00;;;-1.30
10058;BMP180;5068;51.286;7.518;2023-02-28T07:13:59;100702.00;;;-1.30
10058;BMP180;5068;51.286;7.518;2023-02-28T07:15:32;100691.00;;;-1.30
10058;BMP180;5068;51.286;7.518;2023-02-28T07:17:07;100699.00;;;-1.30
10058;BMP180;5068;51.286;7.518;2023-02-28T07:18:41;100693.00;;;-1.30
10058;BMP180;5068;51.286;7.518;2023-02-28T07:20:14;100696.00;;;-1.30
10058;BMP180;5068;51.286;7.518;2023-02-28T07:21:48;100686.00;;;-1.30
10058;BMP180;5068;51.286;7.518;2023-02-28T07:23:21;100693.00;;;-1.30
10058;BMP180;5068;51.286;7.518;2023-02-28T07:24:55;100694.00;;;-1.30
10058;BMP180;5068;51.286;7.518;2023-02-28T07:26:28;100691.00;;;-1.30
10058;BMP180;5068;51.286;7.518;2023-02-28T07:28:01;100695.00;;;-1.30
10058;BMP180;5068;51.286;7.518;2023-02-28T07:29:35;100694.00;;;-1.30
10058;BMP180;5068;51.286;7.518;2023-02-28T07:31:10;100694.00;;;-1.30
10058;BMP180;5068;51.286;7.518;2023-02-28T07:32:44;100707.00;;;-1.30
10058;BMP180;5068;51.286;7.518;2023-02-28T07:34:21;100693.00;;;-1.30
10058;BMP180;5068;51.286;7.518;2023-02-28T07:36:11;100706.00;;;-1.30
10058;BMP180;5068;51.286;7.518;2023-02-28T07:37:47;100703.00;;;-1.20
10058;BMP180;5068;51.286;7.518;2023-02-28T07:39:21;100694.00;;;-1.20
10058;BMP180;5068;51.286;7.518;2023-02-28T07:40:55;100698.00;;;-1.20
10058;BMP180;5068;51.286;7.518;2023-02-28T07:42:28;100702.00;;;-1.20
10058;BMP180;5068;51.286;7.518;2023-02-28T07:44:01;100694.00;;;-1.20
10058;BMP180;5068;51.286;7.518;2023-02-28T07:45:35;100695.00;;;-1.20
10058;BMP180;5068;51.286;7.518;2023-02-28T07:47:09;100701.00;;;-1.20
10058;BMP180;5068;51.286;7.518;2023-02-28T07:48:43;100690.00;;;-1.20
10058;BMP180;5068;51.286;7.518;2023-02-28T07:50:18;100684.00;;;-1.20
10058;BMP180;5068;51.286;7.518;2023-02-28T07:51:51;100693.00;;;-1.10
10058;BMP180;5068;51.286;7.518;2023-02-28T07:53:25;100690.00;;;-1.10
10058;BMP180;5068;51.286;7.518;2023-02-28T07:54:58;100692.00;;;-1.10
10058;BMP180;5068;51.286;7.518;2023-02-28T07:56:31;100691.00;;;-1.10
10058;BMP180;5068;51.286;7.518;2023-02-28T07:58:04;100707.00;;;-1.10
10058;BMP180;5068;51.286;7.518;2023-02-28T07:59:38;100703.00;;;-1.00
10058;BMP180;5068;51.286;7.518;2023-02-28T08:01:12;100717.00;;;-1.00
10058;BMP180;5068;51.286;7.518;2023-02-28T08:02:51;100703.00;;;-1.00
10058;BMP180;5068;51.286;7.518;2023-02-28T08:04:45;100695.00;;;-0.90
10058;BMP180;5068;51.286;7.518;2023-02-28T08:06:25;100698.00;;;-0.90
10058;BMP180;5068;51.286;7.518;2023-02-28T08:07:58;100691.00;;;-0.90
10058;BMP180;5068;51.286;7.518;2023-02-28T08:09:31;100697.00;;;-0.80
10058;BMP180;5068;51.286;7.518;2023-02-28T08:11:06;100701.00;;;-0.80
10058;BMP180;5068;51.286;7.518;2023-02-28T08:12:39;100702.00;;;-0.80
10058;BMP180;5068;51.286;7.518;2023-02-28T08:14:12;100706.00;;;-0.70
10058;BMP180;5068;51.286;7.518;2023-02-28T08:15:45;100685.00;;;-0.70
10058;BMP180;5068;51.286;7.518;2023-02-28T08:17:19;100696.00;;;-0.70
10058;BMP180;5068;51.286;7.518;2023-02-28T08:18:52;100686.00;;;-0.60
10058;BMP180;5068;51.286;7.518;2023-02-28T08:20:26;100686.00;;;-0.60
10058;BMP180;5068;51.286;7.518;2023-02-28T08:22:01;100697.00;;;-0.60
10058;BMP180;5068;51.286;7.518;2023-02-28T08:23:34;100693.00;;;-0.50
10058;BMP180;5068;51.286;7.518;2023-02-28T08:25:08;100688.00;;;-0.40
10058;BMP180;5068;51.286;7.518;2023-02-28T08:26:42;100676.00;;;-0.40
10058;BMP180;5068;51.286;7.518;2023-02-28T08:28:15;100693.00;;;-0.30
10058;BMP180;5068;51.286;7.518;2023-02-28T08:29:48;100692.00;;;-0.10
10058;BMP180;5068;51.286;7.518;2023-02-28T08:31:21;100681.00;;;0.00
10058;BMP180;5068;51.286;7.518;2023-02-28T08:32:55;100685.00;;;0.10
10058;BMP180;5068;51.286;7.518;2023-02-28T08:34:28;100682.00;;;0.20
10058;BMP180;5068;51.286;7.518;2023-02-28T08:36:01;100684.00;;;0.30
10058;BMP180;5068;51.286;7.518;2023-02-28T08:37:36;100682.00;;;0.40
10058;BMP180;5068;51.286;7.518;2023-02-28T08:39:09;100683.00;;;0.60
10058;BMP180;5068;51.286;7.518;2023-02-28T08:40:42;100683.00;;;0.70
10058;BMP180;5068;51.286;7.518;2023-02-28T08:42:15;100678.00;;;0.80
10058;BMP180;5068;51.286;7.518;2023-02-28T08:43:48;100685.00;;;0.90
10058;BMP180;5068;51.286;7.518;2023-02-28T08:45:22;100681.00;;;1.00
10058;BMP180;5068;51.286;7.518;2023-02-28T08:46:55;100687.00;;;1.10
10058;BMP180;5068;51.286;7.518;2023-02-28T08:48:30;100686.00;;;1.20
10058;BMP180;5068;51.286;7.518;2023-02-28T08:50:08;100685.00;;;1.30
10058;BMP180;5068;51.286;7.518;2023-02-28T08:51:42;100689.00;;;1.40
10058;BMP180;5068;51.286;7.518;2023-02-28T08:53:17;100685.00;;;1.50
10058;BMP180;5068;51.286;7.518;2023-02-28T08:54:50;100689.00;;;1.60
10058;BMP180;5068;51.286;7.518;2023-02-28T08:56:23;100687.00;;;1.70
10058;BMP180;5068;51.286;7.518;2023-02-28T08:57:56;100678.00;;;1.90
10058;BMP180;5068;51.286;7.518;2023-02-28T08:59:30;100680.00;;;2.00
10058;BMP180;5068;51.286;7.518;2023-02-28T09:01:11;100675.00;;;2.20
10058;BMP180;5068;51.286;7.518;2023-02-28T09:02:45;100681.00;;;2.30
10058;BMP180;5068;51.286;7.518;2023-02-28T09:04:18;100685.00;;;2.40
10058;BMP180;5068;51.286;7.518;2023-02-28T09:05:55;100670.00;;;2.60
10058;BMP180;5068;51.286;7.518;2023-02-28T09:07:28;100689.00;;;2.70
10058;BMP180;5068;51.286;7.518;2023-02-28T09:09:03;100670.00;;;2.80
10058;BMP180;5068;51.286;7.518;2023-02-28T09:10:38;100686.00;;;2.90
10058;BMP180;5068;51.286;7.518;2023-02-28T09:12:11;100682.00;;;3.10
10058;BMP180;5068;51.286;7.518;2023-02-28T09:13:45;100680.00;;;3.20
10058;BMP180;5068;51.286;7.518;2023-02-28T09:15:19;100684.00;;;3.30
10058;BMP180;5068;51.286;7.518;2023-02-28T09:16:52;100684.00;;;3.40
10058;BMP180;5068;51.286;7.518;2023-02-28T09:18:26;100673.00;;;3.50